Time;durP1;ratioP1;P1;durP2;ratioP2;P2;SDS_P1;SDS_P2;PMS_P1;PMS_P2;Temp;Humidity;BMP_temperature;BMP_pressure;BME280_temperature;BME280_humidity;BME280_pressure;Samples;Min_cycle;Max_cycle;Signal;HPM_P1;HPM_P2
2021/04/17 00:01:32;;;;;;;10.83;9.83;;;3.70;99.90;;;;;;5003542;28;20240;-79
2021/04/17 00:03:58;;;;;;;9.90;8.90;;;3.70;99.90;;;;;;5001597;28;20538;-79
2021/04/17 00:06:24;;;;;;;10.67;9.67;;;3.60;99.90;;;;;;5003294;28;20204;-81
2021/04/17 00:08:50;;;;;;;10.77;9.87;;;3.60;99.90;;;;;;5002668;28;20177;-81
2021/04/17 00:11:16;;;;;;;11.03;10.03;;;3.50;99.90;;;;;;5000467;28;20234;-80
2021/04/17 00:13:43;;;;;;;10.60;9.70;;;3.40;99.90;;;;;;5003055;28;20174;-80
2021/04/17 00:16:08;;;;;;;11.27;10.10;;;3.30;99.90;;;;;;5007289;28;20188;-81
2021/04/17 00:18:34;;;;;;;11.00;10.00;;;3.40;99.90;;;;;;5006472;28;20175;-81
2021/04/17 00:21:00;;;;;;;10.87;9.93;;;3.40;99.90;;;;;;5005081;28;20181;-81
2021/04/17 00:23:26;;;;;;;11.30;10.20;;;3.40;99.90;;;;;;4998269;28;20181;-79
2021/04/17 00:25:52;;;;;;;11.77;10.57;;;3.40;99.90;;;;;;5006277;28;20227;-80
2021/04/17 00:28:18;;;;;;;11.03;10.03;;;3.50;99.90;;;;;;5006558;28;20224;-79
2021/04/17 00:30:43;;;;;;;11.70;10.70;;;3.40;99.90;;;;;;5005934;28;20177;-80
2021/04/17 00:33:09;;;;;;;11.90;10.80;;;3.60;99.90;;;;;;5008763;28;20261;-79
2021/04/17 00:35:35;;;;;;;11.90;10.70;;;3.30;99.90;;;;;;5010062;28;20463;-80
2021/04/17 00:38:00;;;;;;;13.07;11.77;;;3.30;99.90;;;;;;5008065;28;20199;-79
2021/04/17 00:40:27;;;;;;;11.60;10.40;;;3.20;99.90;;;;;;5009728;28;20213;-79
2021/04/17 00:42:53;;;;;;;12.80;11.50;;;3.20;99.90;;;;;;5008533;28;20173;-79
2021/04/17 00:45:19;;;;;;;12.13;10.93;;;3.10;99.90;;;;;;5008932;28;20274;-79
2021/04/17 00:47:45;;;;;;;11.77;10.57;;;3.00;99.90;;;;;;5010071;28;20193;-79
2021/04/17 00:50:12;;;;;;;12.17;10.97;;;3.00;99.90;;;;;;5007949;28;20181;-79
2021/04/17 00:52:39;;;;;;;12.63;11.33;;;3.00;99.90;;;;;;5011466;28;20538;-80
2021/04/17 00:55:07;;;;;;;13.50;11.07;;;3.00;99.90;;;;;;5007507;28;20179;-80
2021/04/17 00:57:32;;;;;;;13.07;11.77;;;3.00;99.90;;;;;;5011186;28;20223;-79
2021/04/17 00:59:58;;;;;;;12.40;11.00;;;3.10;99.90;;;;;;5012497;28;20184;-78
2021/04/17 01:02:33;;;;;;;14.30;12.10;;;3.00;99.90;;;;;;5011371;28;20189;-79
2021/04/17 01:05:01;;;;;;;13.10;11.80;;;3.00;99.90;;;;;;5012126;28;20652;-79
2021/04/17 01:07:47;;;;;;;13.07;11.77;;;3.00;99.90;;;;;;5011721;28;20279;-80
2021/04/17 01:10:50;;;;;;;13.13;11.60;;;3.10;99.90;;;;;;5012576;28;20196;-81
2021/04/17 01:13:17;;;;;;;12.93;11.63;;;3.10;99.90;;;;;;5001988;28;20189;-79
2021/04/17 01:15:43;;;;;;;13.40;12.00;;;3.10;99.90;;;;;;5011570;28;20516;-79
2021/04/17 01:18:10;;;;;;;12.47;11.17;;;3.20;99.90;;;;;;5010484;28;20198;-79
2021/04/17 01:20:57;;;;;;;12.53;11.23;;;3.20;99.90;;;;;;5011017;28;20188;-80
2021/04/17 01:23:40;;;;;;;13.33;11.77;;;3.10;99.90;;;;;;5002090;28;20528;-80
2021/04/17 01:26:16;;;;;;;16.27;12.67;;;3.00;99.90;;;;;;5005796;28;20231;-81
2021/04/17 01:28:44;;;;;;;13.20;11.80;;;3.10;99.90;;;;;;5005594;28;20235;-79
2021/04/17 01:31:13;;;;;;;13.97;12.47;;;3.10;99.90;;;;;;5010008;28;20173;-81
2021/04/17 01:33:42;;;;;;;15.13;13.43;;;3.10;99.90;;;;;;5010335;28;20538;-79
2021/04/17 01:36:09;;;;;;;15.33;12.47;;;3.00;99.90;;;;;;5010578;28;20181;-79
2021/04/17 01:38:42;;;;;;;14.77;12.97;;;3.00;99.90;;;;;;5011207;28;20179;-79
2021/04/17 01:41:13;;;;;;;14.63;12.23;;;2.90;99.90;;;;;;5011787;28;20187;-79
2021/04/17 01:43:40;;;;;;;14.30;12.80;;;2.90;99.90;;;;;;5011812;28;20185;-80
2021/04/17 01:46:14;;;;;;;13.87;12.47;;;2.90;99.90;;;;;;5010483;28;20172;-79
2021/04/17 01:48:42;;;;;;;14.77;13.27;;;3.00;99.90;;;;;;5011027;28;20164;-80
2021/04/17 01:51:09;;;;;;;15.83;13.33;;;3.00;99.90;;;;;;5009402;28;20200;-79
2021/04/17 01:53:39;;;;;;;14.43;12.93;;;3.00;99.90;;;;;;5010624;28;20183;-79
2021/04/17 01:56:07;;;;;;;16.13;14.20;;;3.00;99.90;;;;;;5010435;28;20182;-79
2021/04/17 01:58:38;;;;;;;16.73;13.90;;;2.60;99.90;;;;;;5009855;28;20168;-80
2021/04/17 02:01:04;;;;;;;16.37;13.83;;;2.70;99.90;;;;;;5008941;28;20168;-79
2021/04/17 02:03:30;;;;;;;20.27;15.93;;;2.70;99.90;;;;;;5001394;28;20200;-79
2021/04/17 02:05:57;;;;;;;17.30;14.80;;;2.70;99.90;;;;;;5009430;28;20197;-80
2021/04/17 02:08:23;;;;;;;20.77;15.33;;;2.80;99.90;;;;;;5009699;28;20175;-79
2021/04/17 02:10:51;;;;;;;17.93;14.97;;;2.70;99.90;;;;;;5011137;28;20178;-79
2021/04/17 02:13:18;;;;;;;17.27;14.03;;;2.90;99.90;;;;;;5010007;28;20197;-79
2021/04/17 02:15:44;;;;;;;19.20;16.07;;;2.90;99.90;;;;;;5010035;28;20171;-79
2021/04/17 02:18:27;;;;;;;17.63;14.97;;;2.90;99.90;;;;;;5009922;28;20189;-79
2021/04/17 02:21:02;;;;;;;18.20;15.70;;;2.80;99.90;;;;;;5009226;28;20173;-79
2021/04/17 02:23:29;;;;;;;19.70;15.67;;;2.80;99.90;;;;;;5001381;28;20176;-80
2021/04/17 02:25:59;;;;;;;19.23;15.30;;;2.90;99.90;;;;;;5008534;28;20220;-79
2021/04/17 02:28:27;;;;;;;19.00;15.90;;;2.90;99.90;;;;;;5010607;28;20168;-79
2021/04/17 02:30:54;;;;;;;20.70;15.43;;;2.90;99.90;;;;;;4991861;28;20177;-80
2021/04/17 02:33:20;;;;;;;19.17;15.33;;;2.90;99.90;;;;;;4988173;28;20176;-79
2021/04/17 02:35:46;;;;;;;20.87;16.13;;;2.80;99.90;;;;;;5007972;28;20173;-80
2021/04/17 02:38:13;;;;;;;20.13;15.37;;;2.90;99.90;;;;;;5008166;28;20215;-80
2021/04/17 02:40:39;;;;;;;21.80;15.23;;;2.90;99.90;;;;;;5009171;28;20187;-79
2021/04/17 02:43:05;;;;;;;22.30;16.83;;;2.90;99.90;;;;;;5007664;28;20257;-79
2021/04/17 02:45:31;;;;;;;20.10;16.07;;;2.80;99.90;;;;;;5006572;28;20230;-80
2021/04/17 02:47:57;;;;;;;19.00;15.63;;;2.70;99.90;;;;;;5007422;28;20687;-79
2021/04/17 02:50:23;;;;;;;26.07;16.83;;;2.60;99.90;;;;;;5006134;28;20183;-79
2021/04/17 02:52:49;;;;;;;21.47;17.20;;;2.60;99.90;;;;;;5007717;28;20648;-79
2021/04/17 02:55:17;;;;;;;22.83;16.87;;;2.60;99.90;;;;;;5008580;28;20200;-79
2021/04/17 02:57:43;;;;;;;20.23;16.10;;;2.70;99.90;;;;;;5007387;28;20229;-79
2021/04/17 03:00:11;;;;;;;23.77;17.93;;;2.70;99.90;;;;;;5002803;28;20176;-79
2021/04/17 03:02:37;;;;;;;20.90;15.87;;;2.70;99.90;;;;;;5007800;28;20188;-80
2021/04/17 03:05:05;;;;;;;22.00;16.87;;;2.80;99.90;;;;;;5007271;28;20197;-80
2021/04/17 03:07:31;;;;;;;23.20;17.13;;;2.80;99.90;;;;;;5006537;28;20198;-79
2021/04/17 03:09:56;;;;;;;25.27;18.23;;;2.80;99.90;;;;;;5007149;28;20173;-80
2021/04/17 03:12:22;;;;;;;22.73;17.43;;;2.80;99.90;;;;;;5007322;28;20200;-80
2021/04/17 03:14:48;;;;;;;25.30;18.53;;;2.80;99.90;;;;;;5007503;28;20247;-79
2021/04/17 03:17:15;;;;;;;24.67;17.90;;;2.70;99.90;;;;;;5007071;28;20570;-80
2021/04/17 03:19:42;;;;;;;25.67;18.43;;;2.70;99.90;;;;;;5005490;28;20184;-78
2021/04/17 03:22:07;;;;;;;22.67;17.67;;;2.70;99.90;;;;;;5003286;28;20188;-78
2021/04/17 03:24:35;;;;;;;25.67;16.80;;;2.60;99.90;;;;;;5001020;28;20200;-79
2021/04/17 03:27:03;;;;;;;25.73;17.93;;;2.60;99.90;;;;;;5004022;28;20209;-80
2021/04/17 03:29:29;;;;;;;27.27;18.70;;;2.60;99.90;;;;;;4988365;28;20202;-80
2021/04/17 03:31:55;;;;;;;21.93;17.20;;;2.50;99.90;;;;;;4983271;28;20180;-80
2021/04/17 03:34:21;;;;;;;26.73;18.03;;;2.40;99.90;;;;;;5006481;28;20188;-80
2021/04/17 03:36:47;;;;;;;24.67;18.63;;;2.40;99.90;;;;;;5007812;28;20214;-81
2021/04/17 03:39:13;;;;;;;26.10;18.27;;;2.40;99.90;;;;;;5006620;28;20208;-80
2021/04/17 03:41:39;;;;;;;24.73;18.23;;;2.50;99.90;;;;;;5007518;28;20245;-80
2021/04/17 03:44:05;;;;;;;24.03;18.00;;;2.50;99.90;;;;;;5007031;28;20226;-81
2021/04/17 03:46:32;;;;;;;26.47;19.00;;;2.50;99.90;;;;;;5006557;28;20224;-80
2021/04/17 03:48:58;;;;;;;24.37;18.13;;;2.50;99.90;;;;;;5007807;28;20188;-80
2021/04/17 03:51:24;;;;;;;29.47;19.13;;;2.50;99.90;;;;;;5011679;28;20187;-79
2021/04/17 03:53:50;;;;;;;25.43;17.80;;;2.50;99.90;;;;;;5010911;28;20172;-80
2021/04/17 03:56:16;;;;;;;27.07;18.83;;;2.50;99.90;;;;;;5010021;28;20279;-80
2021/04/17 03:58:42;;;;;;;25.67;18.63;;;2.40;99.90;;;;;;5008746;28;20173;-80
2021/04/17 04:01:08;;;;;;;26.30;19.17;;;2.50;99.90;;;;;;4997968;28;20181;-80
2021/04/17 04:03:35;;;;;;;28.13;19.53;;;2.50;99.90;;;;;;5003149;28;20215;-80
2021/04/17 04:06:00;;;;;;;26.50;18.70;;;2.50;99.90;;;;;;4985707;28;20189;-80
2021/04/17 04:08:26;;;;;;;27.07;19.17;;;2.40;99.90;;;;;;5008438;28;20248;-80
2021/04/17 04:10:52;;;;;;;23.63;17.97;;;2.50;99.90;;;;;;5008262;28;20182;-80
2021/04/17 04:13:18;;;;;;;27.80;18.67;;;2.50;99.90;;;;;;5009938;28;20177;-79
2021/04/17 04:15:44;;;;;;;25.63;17.50;;;2.40;99.90;;;;;;5008833;28;20179;-79
2021/04/17 04:18:10;;;;;;;27.13;18.73;;;2.40;99.90;;;;;;5008594;28;20700;-81
2021/04/17 04:20:36;;;;;;;26.83;18.33;;;2.50;99.90;;;;;;5008556;28;20250;-81
2021/04/17 04:23:02;;;;;;;30.30;20.03;;;2.40;99.90;;;;;;5001799;28;20208;-79
2021/04/17 04:25:29;;;;;;;27.33;19.63;;;2.50;99.90;;;;;;5010886;28;20200;-79
2021/04/17 04:27:55;;;;;;;28.57;20.07;;;2.50;99.90;;;;;;5009978;28;20296;-79
2021/04/17 04:30:22;;;;;;;25.20;19.17;;;2.40;99.90;;;;;;5012261;28;20179;-79
2021/04/17 04:32:48;;;;;;;29.13;19.80;;;2.30;99.90;;;;;;5011867;28;20738;-79
2021/04/17 04:35:14;;;;;;;30.73;20.43;;;2.40;99.90;;;;;;5012212;28;20182;-81
2021/04/17 04:37:40;;;;;;;29.50;18.97;;;2.40;99.90;;;;;;5013291;28;20195;-79
2021/04/17 04:40:08;;;;;;;27.03;19.03;;;2.40;99.90;;;;;;5013059;28;20187;-80
2021/04/17 04:42:34;;;;;;;27.87;19.17;;;2.40;99.90;;;;;;5012288;28;20175;-80
2021/04/17 04:45:03;;;;;;;29.63;19.33;;;2.40;99.90;;;;;;5011963;28;20201;-80
2021/04/17 04:47:29;;;;;;;27.97;18.97;;;2.40;99.90;;;;;;5010661;28;20205;-80
2021/04/17 04:49:55;;;;;;;28.37;19.67;;;2.30;99.90;;;;;;5010240;28;20617;-80
2021/04/17 04:52:21;;;;;;;27.80;19.17;;;2.30;99.90;;;;;;5009695;28;20260;-81
2021/04/17 04:54:46;;;;;;;29.60;19.47;;;2.30;99.90;;;;;;5008775;28;20181;-81
2021/04/17 04:57:12;;;;;;;29.17;20.17;;;2.40;99.90;;;;;;5009242;28;20248;-81
2021/04/17 04:59:37;;;;;;;29.77;19.40;;;2.40;99.90;;;;;;5010466;28;20171;-80
2021/04/17 05:02:03;;;;;;;27.70;19.57;;;2.40;99.90;;;;;;5003620;28;20240;-80
2021/04/17 05:04:30;;;;;;;28.57;20.30;;;2.40;99.90;;;;;;5008309;28;20268;-81
2021/04/17 05:06:55;;;;;;;30.30;20.13;;;2.40;99.90;;;;;;4999603;28;20205;-80
2021/04/17 05:09:21;;;;;;;29.83;20.60;;;2.50;99.90;;;;;;5007591;28;20173;-81
2021/04/17 05:11:47;;;;;;;29.17;19.60;;;2.50;99.90;;;;;;4982913;28;20221;-81
2021/04/17 05:14:13;;;;;;;32.03;19.97;;;2.50;99.90;;;;;;4985229;28;20177;-79
2021/04/17 05:16:39;;;;;;;30.13;20.20;;;2.50;99.90;;;;;;4986918;28;20276;-81
2021/04/17 05:19:05;;;;;;;28.20;19.53;;;2.50;99.90;;;;;;5003995;28;20247;-81
2021/04/17 05:21:30;;;;;;;28.20;19.73;;;2.50;99.90;;;;;;4987161;28;20189;-82
2021/04/17 05:23:56;;;;;;;29.33;19.17;;;2.50;99.90;;;;;;4995936;28;20183;-81
2021/04/17 05:26:22;;;;;;;31.23;20.63;;;2.40;99.90;;;;;;5003137;28;20246;-82
2021/04/17 05:28:48;;;;;;;29.43;19.87;;;2.50;99.90;;;;;;5000176;28;20180;-81
2021/04/17 05:31:14;;;;;;;28.60;19.17;;;2.50;99.90;;;;;;4996313;28;20185;-81
2021/04/17 05:33:40;;;;;;;30.13;20.77;;;2.60;99.90;;;;;;5004363;28;20172;-81
2021/04/17 05:36:06;;;;;;;28.30;20.40;;;2.50;99.90;;;;;;5004811;28;20187;-81
2021/04/17 05:38:32;;;;;;;31.33;20.60;;;2.60;99.90;;;;;;5007713;28;20184;-81
2021/04/17 05:40:58;;;;;;;32.03;20.97;;;2.60;99.90;;;;;;5006124;28;20179;-81
2021/04/17 05:43:24;;;;;;;30.57;20.57;;;2.70;99.90;;;;;;4993148;28;20214;-81
2021/04/17 05:45:50;;;;;;;30.03;20.03;;;2.70;99.90;;;;;;4988291;28;20217;-79
2021/04/17 05:48:15;;;;;;;30.33;19.80;;;2.70;99.90;;;;;;4993576;28;20200;-81
2021/04/17 05:50:41;;;;;;;28.97;19.97;;;2.70;99.90;;;;;;5001706;28;20683;-80
2021/04/17 05:53:07;;;;;;;31.60;20.43;;;2.70;99.90;;;;;;4993872;28;20181;-80
2021/04/17 05:55:33;;;;;;;34.47;20.30;;;2.80;99.90;;;;;;4998535;28;20195;-80
2021/04/17 05:57:58;;;;;;;28.73;20.00;;;2.80;99.90;;;;;;4998858;28;20205;-81
2021/04/17 06:00:24;;;;;;;32.47;21.67;;;2.80;99.90;;;;;;4997721;28;20177;-80
2021/04/17 06:02:56;;;;;;;30.27;20.67;;;2.90;99.90;;;;;;4999405;28;20179;-80
2021/04/17 06:05:22;;;;;;;31.67;20.73;;;3.00;99.90;;;;;;4997931;28;20197;-80
2021/04/17 06:07:47;;;;;;;31.13;20.17;;;3.00;99.90;;;;;;4995777;28;20215;-80
2021/04/17 06:10:14;;;;;;;30.13;20.63;;;3.10;99.90;;;;;;4999517;28;20669;-80
2021/04/17 06:12:40;;;;;;;28.20;20.20;;;3.10;99.90;;;;;;4996630;28;20220;-81
2021/04/17 06:15:07;;;;;;;29.87;20.27;;;3.10;99.90;;;;;;4998937;28;20179;-82
2021/04/17 06:17:34;;;;;;;32.00;20.27;;;3.20;99.90;;;;;;5000705;28;20766;-80
2021/04/17 06:20:00;;;;;;;34.40;21.10;;;3.20;99.90;;;;;;4998525;28;20639;-79
2021/04/17 06:22:26;;;;;;;27.43;19.07;;;3.40;99.90;;;;;;4992574;28;20192;-81
2021/04/17 06:24:51;;;;;;;30.87;19.47;;;3.40;99.90;;;;;;4998562;28;20197;-80
2021/04/17 06:27:18;;;;;;;29.23;20.17;;;3.40;99.90;;;;;;4975975;28;20229;-81
2021/04/17 06:29:44;;;;;;;40.63;20.63;;;3.40;99.90;;;;;;4983981;28;20182;-80
2021/04/17 06:32:10;;;;;;;28.73;19.03;;;3.50;99.90;;;;;;4977700;28;20243;-81
2021/04/17 06:34:35;;;;;;;30.43;20.53;;;3.50;99.90;;;;;;4977842;28;20591;-80
2021/04/17 06:37:02;;;;;;;31.47;20.70;;;3.60;99.90;;;;;;5006927;28;20209;-81
2021/04/17 06:39:28;;;;;;;31.00;20.07;;;3.70;99.90;;;;;;5006809;28;20204;-81
2021/04/17 06:41:55;;;;;;;30.67;19.40;;;3.80;99.90;;;;;;4988880;28;20648;-80
2021/04/17 06:44:22;;;;;;;31.97;20.67;;;3.90;99.90;;;;;;5002107;28;20250;-81
2021/04/17 06:46:49;;;;;;;30.67;24.33;;;4.00;99.90;;;;;;4973321;28;20423;-80
2021/04/17 06:49:15;;;;;;;27.33;20.33;;;3.80;99.90;;;;;;4968667;28;20172;-80
2021/04/17 06:51:47;;;;;;;30.90;21.40;;;3.90;99.90;;;;;;4985929;28;20254;-79
2021/04/17 06:54:21;;;;;;;27.63;20.47;;;3.90;99.90;;;;;;4992819;28;20183;-79
2021/04/17 06:56:50;;;;;;;29.43;19.00;;;3.90;99.90;;;;;;4995516;28;20273;-81
2021/04/17 06:59:17;;;;;;;32.90;20.20;;;4.00;99.90;;;;;;5000666;28;20179;-80
2021/04/17 07:01:43;;;;;;;29.67;19.63;;;4.00;99.90;;;;;;4990482;28;20558;-81
2021/04/17 07:04:09;;;;;;;32.43;20.67;;;4.00;99.90;;;;;;4985562;28;20229;-81
2021/04/17 07:06:36;;;;;;;31.43;21.20;;;4.00;99.90;;;;;;4988871;28;20212;-80
2021/04/17 07:09:04;;;;;;;41.90;23.48;;;4.10;99.90;;;;;;5003180;28;20412;-80
2021/04/17 07:11:30;;;;;;;29.65;24.20;;;4.20;99.90;;;;;;4986212;28;20420;-80
2021/04/17 07:14:05;;;;;;;28.60;20.23;;;4.20;99.90;;;;;;4997011;28;20742;-79
2021/04/17 07:16:32;;;;;;;32.00;20.43;;;4.30;99.90;;;;;;5005512;28;20227;-80
2021/04/17 07:18:58;;;;;;;34.53;18.60;;;4.30;99.90;;;;;;5002145;28;20185;-80
2021/04/17 07:21:27;;;;;;;27.83;19.50;;;4.40;99.90;;;;;;4998451;28;20533;-79
2021/04/17 07:23:53;;;;;;;28.90;19.57;;;4.60;99.90;;;;;;4980985;28;20179;-80
2021/04/17 07:26:25;;;;;;;30.30;20.50;;;4.60;99.90;;;;;;4993708;28;20212;-82
2021/04/17 07:28:54;;;;;;;30.47;20.30;;;4.70;99.90;;;;;;4997272;28;20612;-79
2021/04/17 07:31:21;;;;;;;28.80;19.70;;;4.80;99.90;;;;;;5003355;28;20185;-79
2021/04/17 07:33:48;;;;;;;32.13;20.37;;;5.00;99.90;;;;;;5009205;28;20255;-79
2021/04/17 07:36:16;;;;;;;29.13;19.33;;;5.10;99.90;;;;;;4992805;28;20189;-80
2021/04/17 07:38:42;;;;;;;28.23;19.17;;;5.00;99.90;;;;;;4986599;28;20183;-80
